sensor_id;sensor_type;location;lat;lon;timestamp;pressure;altitude;pressure_sealevel;temperature;humidity
62055;BME280;48653;51.742;-1.256;2023-07-31T00:01:49;100113.47;;;16.58;61.09
62055;BME280;48653;51.742;-1.256;2023-07-31T00:04:14;100110.85;;;16.76;60.67
62055;BME280;48653;51.742;-1.256;2023-07-31T00:06:39;100106.27;;;16.84;60.99
62055;BME280;48653;51.742;-1.256;2023-07-31T00:09:04;100094.52;;;16.45;62.15
62055;BME280;48653;51.742;-1.256;2023-07-31T00:11:29;100091.00;;;17.16;60.89
62055;BME280;48653;51.742;-1.256;2023-07-31T00:13:54;100091.33;;;17.22;60.83
62055;BME280;48653;51.742;-1.256;2023-07-31T00:16:19;100088.89;;;16.36;62.37
62055;BME280;48653;51.742;-1.256;2023-07-31T00:18:45;100088.88;;;17.26;60.79
62055;BME280;48653;51.742;-1.256;2023-07-31T00:21:09;100074.36;;;16.79;61.61
62055;BME280;48653;51.742;-1.256;2023-07-31T00:23:34;100070.14;;;16.66;61.33
62055;BME280;48653;51.742;-1.256;2023-07-31T00:25:59;100058.24;;;16.21;64.28
62055;BME280;48653;51.742;-1.256;2023-07-31T00:28:24;100056.42;;;16.53;61.67
62055;BME280;48653;51.742;-1.256;2023-07-31T00:30:49;100046.31;;;17.11;60.33
62055;BME280;48653;51.742;-1.256;2023-07-31T00:33:15;100047.86;;;16.90;60.68
62055;BME280;48653;51.742;-1.256;2023-07-31T00:35:40;100052.74;;;17.22;60.54
62055;BME280;48653;51.742;-1.256;2023-07-31T00:38:05;100051.21;;;17.43;59.40
62055;BME280;48653;51.742;-1.256;2023-07-31T00:40:34;100051.78;;;16.91;61.76
62055;BME280;48653;51.742;-1.256;2023-07-31T00:42:55;100045.14;;;16.76;61.31
62055;BME280;48653;51.742;-1.256;2023-07-31T00:47:45;100039.47;;;17.22;60.19
62055;BME280;48653;51.742;-1.256;2023-07-31T00:50:11;100038.70;;;17.11;59.94
62055;BME280;48653;51.742;-1.256;2023-07-31T00:52:36;100032.51;;;17.23;59.44
62055;BME280;48653;51.742;-1.256;2023-07-31T00:55:00;100027.07;;;17.51;59.03
62055;BME280;48653;51.742;-1.256;2023-07-31T00:57:25;100021.62;;;17.53;59.54
62055;BME280;48653;51.742;-1.256;2023-07-31T00:59:50;100013.83;;;17.71;59.27
62055;BME280;48653;51.742;-1.256;2023-07-31T01:02:15;100019.57;;;16.59;62.97
62055;BME280;48653;51.742;-1.256;2023-07-31T01:04:42;100007.85;;;16.71;61.27
62055;BME280;48653;51.742;-1.256;2023-07-31T01:07:11;100003.95;;;16.82;60.47
62055;BME280;48653;51.742;-1.256;2023-07-31T01:09:36;99997.20;;;16.57;61.57
62055;BME280;48653;51.742;-1.256;2023-07-31T01:11:57;99993.97;;;16.55;61.65
62055;BME280;48653;51.742;-1.256;2023-07-31T01:14:21;99984.59;;;16.83;61.50
62055;BME280;48653;51.742;-1.256;2023-07-31T01:16:45;99984.76;;;16.71;61.82
62055;BME280;48653;51.742;-1.256;2023-07-31T01:19:11;99980.49;;;17.14;60.40
62055;BME280;48653;51.742;-1.256;2023-07-31T01:21:52;99977.37;;;17.49;60.06
62055;BME280;48653;51.742;-1.256;2023-07-31T01:26:30;99965.60;;;17.32;59.17
62055;BME280;48653;51.742;-1.256;2023-07-31T01:28:56;99959.22;;;17.02;60.38
62055;BME280;48653;51.742;-1.256;2023-07-31T01:31:22;99963.77;;;17.28;59.38
62055;BME280;48653;51.742;-1.256;2023-07-31T01:33:41;99964.56;;;16.81;60.48
62055;BME280;48653;51.742;-1.256;2023-07-31T01:36:06;99967.72;;;16.75;61.84
62055;BME280;48653;51.742;-1.256;2023-07-31T01:38:31;99959.08;;;16.82;61.86
62055;BME280;48653;51.742;-1.256;2023-07-31T01:40:55;99959.54;;;17.35;60.08
62055;BME280;48653;51.742;-1.256;2023-07-31T01:43:25;99948.31;;;16.72;61.38
62055;BME280;48653;51.742;-1.256;2023-07-31T01:45:46;99942.58;;;17.46;60.46
62055;BME280;48653;51.742;-1.256;2023-07-31T01:48:12;99939.57;;;17.15;61.22
62055;BME280;48653;51.742;-1.256;2023-07-31T01:50:36;99934.08;;;17.02;61.39
62055;BME280;48653;51.742;-1.256;2023-07-31T01:53:01;99942.28;;;16.49;63.40
62055;BME280;48653;51.742;-1.256;2023-07-31T01:55:26;99944.25;;;16.90;62.31
62055;BME280;48653;51.742;-1.256;2023-07-31T01:57:51;99948.92;;;16.92;63.18
62055;BME280;48653;51.742;-1.256;2023-07-31T02:00:16;99932.35;;;16.79;62.84
62055;BME280;48653;51.742;-1.256;2023-07-31T02:02:41;99930.06;;;17.20;62.69
62055;BME280;48653;51.742;-1.256;2023-07-31T02:05:06;99932.81;;;17.31;61.44
62055;BME280;48653;51.742;-1.256;2023-07-31T02:07:31;99932.18;;;17.26;61.53
62055;BME280;48653;51.742;-1.256;2023-07-31T02:09:57;99925.30;;;16.94;62.07
62055;BME280;48653;51.742;-1.256;2023-07-31T02:12:21;99919.50;;;17.75;59.32
62055;BME280;48653;51.742;-1.256;2023-07-31T02:14:46;99914.34;;;16.94;60.86
62055;BME280;48653;51.742;-1.256;2023-07-31T02:17:13;99917.62;;;17.19;61.15
62055;BME280;48653;51.742;-1.256;2023-07-31T02:19:36;99917.92;;;17.78;59.21
62055;BME280;48653;51.742;-1.256;2023-07-31T02:22:03;99910.47;;;17.18;60.82
62055;BME280;48653;51.742;-1.256;2023-07-31T02:24:26;99910.26;;;17.27;60.29
62055;BME280;48653;51.742;-1.256;2023-07-31T02:26:51;99906.37;;;17.19;60.68
62055;BME280;48653;51.742;-1.256;2023-07-31T02:29:16;99912.82;;;17.68;59.56
62055;BME280;48653;51.742;-1.256;2023-07-31T02:31:41;99917.62;;;17.40;59.96
62055;BME280;48653;51.742;-1.256;2023-07-31T02:34:06;99911.16;;;17.61;60.16
62055;BME280;48653;51.742;-1.256;2023-07-31T02:36:31;99910.35;;;17.54;59.64
62055;BME280;48653;51.742;-1.256;2023-07-31T02:38:56;99910.11;;;18.06;58.84
62055;BME280;48653;51.742;-1.256;2023-07-31T02:41:21;99905.57;;;17.36;59.89
62055;BME280;48653;51.742;-1.256;2023-07-31T02:43:46;99906.76;;;17.44;59.58
62055;BME280;48653;51.742;-1.256;2023-07-31T02:46:13;99891.47;;;17.13;61.22
62055;BME280;48653;51.742;-1.256;2023-07-31T02:48:36;99894.36;;;17.88;58.78
62055;BME280;48653;51.742;-1.256;2023-07-31T02:51:01;99891.54;;;18.04;57.62
62055;BME280;48653;51.742;-1.256;2023-07-31T02:53:26;99898.57;;;17.84;57.99
62055;BME280;48653;51.742;-1.256;2023-07-31T02:55:52;99899.52;;;17.95;59.05
62055;BME280;48653;51.742;-1.256;2023-07-31T02:58:17;99897.69;;;17.99;59.64
62055;BME280;48653;51.742;-1.256;2023-07-31T03:00:42;99891.18;;;17.88;60.63
62055;BME280;48653;51.742;-1.256;2023-07-31T03:03:07;99887.58;;;17.13;62.35
62055;BME280;48653;51.742;-1.256;2023-07-31T03:05:32;99893.80;;;17.80;60.81
62055;BME280;48653;51.742;-1.256;2023-07-31T03:07:57;99889.89;;;17.57;61.46
62055;BME280;48653;51.742;-1.256;2023-07-31T03:10:22;99891.58;;;17.38;61.89
62055;BME280;48653;51.742;-1.256;2023-07-31T03:12:47;99889.01;;;17.52;61.62
62055;BME280;48653;51.742;-1.256;2023-07-31T03:15:12;99883.86;;;17.28;62.92
62055;BME280;48653;51.742;-1.256;2023-07-31T03:17:37;99879.70;;;17.20;62.60
62055;BME280;48653;51.742;-1.256;2023-07-31T03:20:03;99878.46;;;17.05;63.06
62055;BME280;48653;51.742;-1.256;2023-07-31T03:22:27;99886.39;;;17.39;62.16
62055;BME280;48653;51.742;-1.256;2023-07-31T03:24:53;99877.75;;;17.55;60.57
62055;BME280;48653;51.742;-1.256;2023-07-31T03:27:19;99881.25;;;18.10;58.96
62055;BME280;48653;51.742;-1.256;2023-07-31T03:29:42;99888.55;;;17.72;60.83
62055;BME280;48653;51.742;-1.256;2023-07-31T03:32:08;99885.28;;;17.33;61.35
62055;BME280;48653;51.742;-1.256;2023-07-31T03:34:33;99891.76;;;18.03;59.62
62055;BME280;48653;51.742;-1.256;2023-07-31T03:36:58;99878.67;;;18.14;59.43
62055;BME280;48653;51.742;-1.256;2023-07-31T03:39:23;99881.71;;;18.19;58.68
62055;BME280;48653;51.742;-1.256;2023-07-31T03:41:48;99884.38;;;17.99;59.63
62055;BME280;48653;51.742;-1.256;2023-07-31T03:44:13;99888.93;;;17.81;60.26
62055;BME280;48653;51.742;-1.256;2023-07-31T03:46:38;99886.24;;;17.89;59.79
62055;BME280;48653;51.742;-1.256;2023-07-31T03:49:03;99886.19;;;17.84;60.40
62055;BME280;48653;51.742;-1.256;2023-07-31T03:51:28;99887.77;;;17.69;60.77
62055;BME280;48653;51.742;-1.256;2023-07-31T03:53:53;99877.59;;;17.90;60.54
62055;BME280;48653;51.742;-1.256;2023-07-31T03:56:18;99877.34;;;17.65;61.61
62055;BME280;48653;51.742;-1.256;2023-07-31T03:58:43;99878.87;;;18.29;60.13
62055;BME280;48653;51.742;-1.256;2023-07-31T04:01:08;99877.03;;;18.63;59.34
62055;BME280;48653;51.742;-1.256;2023-07-31T04:03:34;99879.22;;;18.22;60.26
62055;BME280;48653;51.742;-1.256;2023-07-31T04:06:00;99882.08;;;18.66;58.74
62055;BME280;48653;51.742;-1.256;2023-07-31T04:08:26;99883.35;;;18.89;57.77
62055;BME280;48653;51.742;-1.256;2023-07-31T04:10:49;99880.15;;;18.13;59.59
62055;BME280;48653;51.742;-1.256;2023-07-31T04:13:14;99895.45;;;18.42;58.98
62055;BME280;48653;51.742;-1.256;2023-07-31T04:15:39;99895.55;;;17.69;61.13
62055;BME280;48653;51.742;-1.256;2023-07-31T04:18:05;99889.22;;;18.22;59.87
62055;BME280;48653;51.742;-1.256;2023-07-31T04:20:30;99893.70;;;17.68;60.21
62055;BME280;48653;51.742;-1.256;2023-07-31T04:22:54;99888.82;;;18.47;58.47
62055;BME280;48653;51.742;-1.256;2023-07-31T04:25:19;99892.10;;;18.17;59.56
62055;BME280;48653;51.742;-1.256;2023-07-31T04:27:44;99893.00;;;18.27;58.80
62055;BME280;48653;51.742;-1.256;2023-07-31T04:30:10;99895.54;;;18.73;57.73
62055;BME280;48653;51.742;-1.256;2023-07-31T04:32:34;99891.93;;;18.84;57.36
62055;BME280;48653;51.742;-1.256;2023-07-31T04:35:00;99895.24;;;18.06;59.16
62055;BME280;48653;51.742;-1.256;2023-07-31T04:37:25;99898.19;;;18.13;58.96
62055;BME280;48653;51.742;-1.256;2023-07-31T04:39:49;99903.28;;;18.63;57.75
62055;BME280;48653;51.742;-1.256;2023-07-31T04:42:15;99904.55;;;18.66;57.73
62055;BME280;48653;51.742;-1.256;2023-07-31T04:44:40;99898.87;;;19.09;56.70
62055;BME280;48653;51.742;-1.256;2023-07-31T04:47:04;99901.81;;;18.79;56.91
62055;BME280;48653;51.742;-1.256;2023-07-31T04:49:29;99906.34;;;18.12;58.57
62055;BME280;48653;51.742;-1.256;2023-07-31T04:51:54;99901.99;;;17.57;59.53
62055;BME280;48653;51.742;-1.256;2023-07-31T04:54:19;99905.62;;;17.43;60.85
62055;BME280;48653;51.742;-1.256;2023-07-31T04:56:44;99903.83;;;16.79;63.36
62055;BME280;48653;51.742;-1.256;2023-07-31T04:59:10;99899.85;;;16.91;62.77
62055;BME280;48653;51.742;-1.256;2023-07-31T05:01:34;99898.47;;;17.46;62.51
62055;BME280;48653;51.742;-1.256;2023-07-31T05:04:00;99884.30;;;16.51;64.51
62055;BME280;48653;51.742;-1.256;2023-07-31T05:06:24;99884.21;;;16.79;62.97
62055;BME280;48653;51.742;-1.256;2023-07-31T05:08:50;99888.58;;;16.72;62.69
62055;BME280;48653;51.742;-1.256;2023-07-31T05:11:16;99889.03;;;17.74;60.33
62055;BME280;48653;51.742;-1.256;2023-07-31T05:13:40;99893.17;;;16.84;61.67
62055;BME280;48653;51.742;-1.256;2023-07-31T05:16:06;99896.21;;;16.41;62.87
62055;BME280;48653;51.742;-1.256;2023-07-31T05:18:30;99894.70;;;17.37;60.80
62055;BME280;48653;51.742;-1.256;2023-07-31T05:20:56;99894.40;;;17.40;60.39
62055;BME280;48653;51.742;-1.256;2023-07-31T05:23:20;99882.70;;;16.93;61.14
62055;BME280;48653;51.742;-1.256;2023-07-31T05:25:45;99884.17;;;17.25;60.32
62055;BME280;48653;51.742;-1.256;2023-07-31T05:28:11;99879.44;;;17.06;60.67
62055;BME280;48653;51.742;-1.256;2023-07-31T05:30:36;99890.30;;;16.64;61.18
62055;BME280;48653;51.742;-1.256;2023-07-31T05:33:01;99897.42;;;16.77;60.74
62055;BME280;48653;51.742;-1.256;2023-07-31T05:35:26;99893.15;;;17.53;59.08
62055;BME280;48653;51.742;-1.256;2023-07-31T05:37:51;99891.53;;;16.61;60.78
62055;BME280;48653;51.742;-1.256;2023-07-31T05:40:16;99896.22;;;17.20;60.65
62055;BME280;48653;51.742;-1.256;2023-07-31T05:42:41;99891.79;;;17.02;60.44
62055;BME280;48653;51.742;-1.256;2023-07-31T05:45:07;99899.78;;;17.60;59.46
62055;BME280;48653;51.742;-1.256;2023-07-31T05:47:32;99897.38;;;17.04;59.72
62055;BME280;48653;51.742;-1.256;2023-07-31T05:49:57;99900.39;;;16.67;60.63
62055;BME280;48653;51.742;-1.256;2023-07-31T05:52:23;99896.55;;;16.81;60.35
62055;BME280;48653;51.742;-1.256;2023-07-31T05:54:48;99891.32;;;16.90;60.94
62055;BME280;48653;51.742;-1.256;2023-07-31T05:57:13;99884.38;;;17.15;60.47
62055;BME280;48653;51.742;-1.256;2023-07-31T05:59:38;99897.10;;;17.64;59.49
62055;BME280;48653;51.742;-1.256;2023-07-31T06:02:05;99888.24;;;16.98;59.69
62055;BME280;48653;51.742;-1.256;2023-07-31T06:04:28;99893.48;;;17.65;58.05
62055;BME280;48653;51.742;-1.256;2023-07-31T06:06:54;99896.91;;;17.44;57.57
62055;BME280;48653;51.742;-1.256;2023-07-31T06:09:18;99894.02;;;18.42;56.06
62055;BME280;48653;51.742;-1.256;2023-07-31T06:11:44;99899.88;;;17.36;57.03
62055;BME280;48653;51.742;-1.256;2023-07-31T06:14:09;99902.57;;;17.88;57.33
62055;BME280;48653;51.742;-1.256;2023-07-31T06:16:34;99903.63;;;17.90;56.76
62055;BME280;48653;51.742;-1.256;2023-07-31T06:19:00;99897.59;;;18.23;56.72
62055;BME280;48653;51.742;-1.256;2023-07-31T06:21:24;99892.64;;;18.31;55.66
62055;BME280;48653;51.742;-1.256;2023-07-31T06:23:49;99885.62;;;18.36;55.61
62055;BME280;48653;51.742;-1.256;2023-07-31T06:26:14;99894.01;;;17.98;56.68
62055;BME280;48653;51.742;-1.256;2023-07-31T06:28:40;99885.12;;;18.16;56.63
62055;BME280;48653;51.742;-1.256;2023-07-31T06:31:04;99886.43;;;18.65;54.64
62055;BME280;48653;51.742;-1.256;2023-07-31T06:33:30;99890.94;;;18.70;54.50
62055;BME280;48653;51.742;-1.256;2023-07-31T06:35:54;99888.71;;;18.89;53.92
62055;BME280;48653;51.742;-1.256;2023-07-31T06:38:25;99876.50;;;18.71;54.59
62055;BME280;48653;51.742;-1.256;2023-07-31T06:40:44;99872.09;;;19.03;53.54
62055;BME280;48653;51.742;-1.256;2023-07-31T06:43:09;99873.42;;;18.64;53.17
62055;BME280;48653;51.742;-1.256;2023-07-31T06:45:37;99871.45;;;18.60;53.77
62055;BME280;48653;51.742;-1.256;2023-07-31T06:48:00;99864.35;;;18.92;53.57
62055;BME280;48653;51.742;-1.256;2023-07-31T06:50:25;99859.39;;;19.26;52.79
62055;BME280;48653;51.742;-1.256;2023-07-31T06:52:50;99856.58;;;19.26;52.35
62055;BME280;48653;51.742;-1.256;2023-07-31T06:55:18;99860.75;;;19.44;52.52
62055;BME280;48653;51.742;-1.256;2023-07-31T06:57:40;99867.15;;;19.17;53.21
62055;BME280;48653;51.742;-1.256;2023-07-31T07:00:08;99867.13;;;19.73;52.39
62055;BME280;48653;51.742;-1.256;2023-07-31T07:02:30;99869.88;;;19.20;53.25
62055;BME280;48653;51.742;-1.256;2023-07-31T07:04:56;99866.34;;;18.98;53.47
62055;BME280;48653;51.742;-1.256;2023-07-31T07:07:20;99851.36;;;19.35;53.99
62055;BME280;48653;51.742;-1.256;2023-07-31T07:09:46;99853.57;;;18.66;54.63
62055;BME280;48653;51.742;-1.256;2023-07-31T07:12:10;99851.84;;;19.00;54.61
62055;BME280;48653;51.742;-1.256;2023-07-31T07:14:35;99865.36;;;18.62;54.65
62055;BME280;48653;51.742;-1.256;2023-07-31T07:17:00;99862.93;;;18.68;55.30
62055;BME280;48653;51.742;-1.256;2023-07-31T07:19:26;99862.35;;;18.42;55.86
62055;BME280;48653;51.742;-1.256;2023-07-31T07:21:51;99857.14;;;18.33;55.94
62055;BME280;48653;51.742;-1.256;2023-07-31T07:24:16;99844.09;;;19.06;54.62
62055;BME280;48653;51.742;-1.256;2023-07-31T07:26:41;99848.34;;;18.73;54.23
62055;BME280;48653;51.742;-1.256;2023-07-31T07:29:06;99850.60;;;18.95;53.86
62055;BME280;48653;51.742;-1.256;2023-07-31T07:31:31;99857.78;;;19.91;52.34
62055;BME280;48653;51.742;-1.256;2023-07-31T07:33:56;99855.51;;;19.26;53.47
62055;BME280;48653;51.742;-1.256;2023-07-31T07:36:21;99849.95;;;19.19;53.67
62055;BME280;48653;51.742;-1.256;2023-07-31T07:38:46;99840.90;;;18.86;54.24
62055;BME280;48653;51.742;-1.256;2023-07-31T07:41:11;99837.23;;;18.96;53.78
62055;BME280;48653;51.742;-1.256;2023-07-31T07:43:36;99841.62;;;19.93;51.94
62055;BME280;48653;51.742;-1.256;2023-07-31T07:46:01;99842.44;;;19.80;52.05
62055;BME280;48653;51.742;-1.256;2023-07-31T07:48:26;99856.13;;;19.42;53.46
62055;BME280;48653;51.742;-1.256;2023-07-31T07:50:52;99853.14;;;19.25;53.92
62055;BME280;48653;51.742;-1.256;2023-07-31T07:53:17;99843.07;;;19.06;53.35
62055;BME280;48653;51.742;-1.256;2023-07-31T07:55:42;99839.21;;;19.06;53.95
62055;BME280;48653;51.742;-1.256;2023-07-31T07:58:08;99828.73;;;18.91;54.22
62055;BME280;48653;51.742;-1.256;2023-07-31T08:00:33;99825.15;;;18.05;55.07
62055;BME280;48653;51.742;-1.256;2023-07-31T08:02:57;99827.30;;;19.39;53.19
62055;BME280;48653;51.742;-1.256;2023-07-31T08:05:22;99828.19;;;18.79;53.92
62055;BME280;48653;51.742;-1.256;2023-07-31T08:07:47;99822.05;;;19.43;53.39
62055;BME280;48653;51.742;-1.256;2023-07-31T08:10:12;99812.81;;;18.47;53.40
62055;BME280;48653;51.742;-1.256;2023-07-31T08:12:37;99805.94;;;19.27;52.22
62055;BME280;48653;51.742;-1.256;2023-07-31T08:15:02;99804.89;;;19.01;53.12
62055;BME280;48653;51.742;-1.256;2023-07-31T08:17:27;99807.83;;;18.26;54.78
62055;BME280;48653;51.742;-1.256;2023-07-31T08:19:53;99807.21;;;18.80;54.34
62055;BME280;48653;51.742;-1.256;2023-07-31T08:22:17;99810.23;;;18.83;53.23
62055;BME280;48653;51.742;-1.256;2023-07-31T08:24:42;99805.65;;;19.42;52.39
62055;BME280;48653;51.742;-1.256;2023-07-31T08:27:07;99804.81;;;19.67;52.15
62055;BME280;48653;51.742;-1.256;2023-07-31T08:29:32;99814.83;;;18.77;52.24
62055;BME280;48653;51.742;-1.256;2023-07-31T08:31:57;99817.95;;;19.26;52.98
62055;BME280;48653;51.742;-1.256;2023-07-31T08:34:24;99833.14;;;19.02;53.60
62055;BME280;48653;51.742;-1.256;2023-07-31T08:36:48;99840.17;;;18.82;53.82
62055;BME280;48653;51.742;-1.256;2023-07-31T08:39:13;99841.34;;;19.39;53.35
62055;BME280;48653;51.742;-1.256;2023-07-31T08:41:38;99832.96;;;19.19;53.47
62055;BME280;48653;51.742;-1.256;2023-07-31T08:44:03;99834.70;;;19.33;52.88
62055;BME280;48653;51.742;-1.256;2023-07-31T08:46:28;99834.14;;;19.17;52.83
62055;BME280;48653;51.742;-1.256;2023-07-31T08:48:54;99819.97;;;19.33;52.82
62055;BME280;48653;51.742;-1.256;2023-07-31T08:51:17;99807.17;;;19.28;52.06
62055;BME280;48653;51.742;-1.256;2023-07-31T08:53:43;99797.18;;;19.20;52.27
62055;BME280;48653;51.742;-1.256;2023-07-31T08:56:08;99780.81;;;19.88;52.00
62055;BME280;48653;51.742;-1.256;2023-07-31T08:58:34;99770.94;;;19.56;51.45
62055;BME280;48653;51.742;-1.256;2023-07-31T09:01:01;99768.95;;;19.94;50.81
62055;BME280;48653;51.742;-1.256;2023-07-31T09:03:24;99768.72;;;20.20;51.14
62055;BME280;48653;51.742;-1.256;2023-07-31T09:05:48;99763.26;;;20.35;50.31
62055;BME280;48653;51.742;-1.256;2023-07-31T09:08:17;99756.29;;;20.45;49.47
62055;BME280;48653;51.742;-1.256;2023-07-31T09:10:41;99747.26;;;20.28;49.03
62055;BME280;48653;51.742;-1.256;2023-07-31T09:13:04;99741.49;;;19.84;49.82
62055;BME280;48653;51.742;-1.256;2023-07-31T09:15:28;99761.71;;;19.80;50.24
62055;BME280;48653;51.742;-1.256;2023-07-31T09:17:58;99770.90;;;19.46;51.16
62055;BME280;48653;51.742;-1.256;2023-07-31T09:20:19;99767.39;;;19.76;49.73
62055;BME280;48653;51.742;-1.256;2023-07-31T09:22:45;99779.13;;;19.45;50.64
62055;BME280;48653;51.742;-1.256;2023-07-31T09:25:16;99772.52;;;19.75;50.57
62055;BME280;48653;51.742;-1.256;2023-07-31T09:29:59;99769.92;;;20.01;48.43
62055;BME280;48653;51.742;-1.256;2023-07-31T09:32:25;99784.61;;;20.08;48.99
62055;BME280;48653;51.742;-1.256;2023-07-31T09:34:48;99789.91;;;19.51;48.73
62055;BME280;48653;51.742;-1.256;2023-07-31T09:37:14;99798.31;;;20.68;48.31
62055;BME280;48653;51.742;-1.256;2023-07-31T09:39:47;99807.95;;;20.15;49.10
62055;BME280;48653;51.742;-1.256;2023-07-31T09:42:04;99796.14;;;19.97;49.45
62055;BME280;48653;51.742;-1.256;2023-07-31T09:44:39;99783.57;;;18.90;50.43
62055;BME280;48653;51.742;-1.256;2023-07-31T09:46:55;99780.63;;;19.41;50.69
62055;BME280;48653;51.742;-1.256;2023-07-31T09:49:19;99784.00;;;19.54;50.07
62055;BME280;48653;51.742;-1.256;2023-07-31T09:51:44;99789.96;;;19.42;50.45
62055;BME280;48653;51.742;-1.256;2023-07-31T09:54:10;99785.05;;;19.41;50.10
62055;BME280;48653;51.742;-1.256;2023-07-31T09:58:59;99795.95;;;20.09;48.76
62055;BME280;48653;51.742;-1.256;2023-07-31T10:01:24;99785.84;;;19.75;49.21
62055;BME280;48653;51.742;-1.256;2023-07-31T10:03:49;99775.71;;;19.07;49.45
62055;BME280;48653;51.742;-1.256;2023-07-31T10:06:17;99768.70;;;19.29;49.21
62055;BME280;48653;51.742;-1.256;2023-07-31T10:08:40;99747.26;;;20.05;47.97
62055;BME280;48653;51.742;-1.256;2023-07-31T10:11:05;99740.32;;;20.28;47.79
62055;BME280;48653;51.742;-1.256;2023-07-31T10:13:30;99762.65;;;20.24;47.38
62055;BME280;48653;51.742;-1.256;2023-07-31T10:15:54;99783.00;;;20.69;47.20
62055;BME280;48653;51.742;-1.256;2023-07-31T10:18:20;99792.96;;;19.90;48.45
62055;BME280;48653;51.742;-1.256;2023-07-31T10:20:47;99803.01;;;18.77;51.37
62055;BME280;48653;51.742;-1.256;2023-07-31T10:23:10;99812.19;;;18.01;51.91
62055;BME280;48653;51.742;-1.256;2023-07-31T10:25:35;99812.78;;;17.90;52.90
62055;BME280;48653;51.742;-1.256;2023-07-31T10:28:00;99800.62;;;19.62;50.10
62055;BME280;48653;51.742;-1.256;2023-07-31T10:30:27;99800.94;;;19.95;49.10
62055;BME280;48653;51.742;-1.256;2023-07-31T10:32:50;99800.91;;;19.41;49.10
62055;BME280;48653;51.742;-1.256;2023-07-31T10:35:16;99810.81;;;19.71;49.28
62055;BME280;48653;51.742;-1.256;2023-07-31T10:37:41;99819.21;;;18.67;50.77
62055;BME280;48653;51.742;-1.256;2023-07-31T10:40:11;99819.53;;;18.60;50.58
62055;BME280;48653;51.742;-1.256;2023-07-31T10:42:31;99819.66;;;18.56;50.94
62055;BME280;48653;51.742;-1.256;2023-07-31T10:44:57;99814.55;;;18.11;52.92
62055;BME280;48653;51.742;-1.256;2023-07-31T10:47:20;99809.39;;;18.61;51.25
62055;BME280;48653;51.742;-1.256;2023-07-31T10:49:45;99815.06;;;18.89;50.20
62055;BME280;48653;51.742;-1.256;2023-07-31T10:52:11;99797.50;;;19.19;49.67
62055;BME280;48653;51.742;-1.256;2023-07-31T10:54:35;99790.15;;;18.86;50.36
62055;BME280;48653;51.742;-1.256;2023-07-31T10:57:01;99790.93;;;19.54;48.56
62055;BME280;48653;51.742;-1.256;2023-07-31T10:59:26;99801.30;;;19.84;47.83
62055;BME280;48653;51.742;-1.256;2023-07-31T11:01:53;99806.59;;;18.78;49.99
62055;BME280;48653;51.742;-1.256;2023-07-31T11:04:22;99803.47;;;18.99;49.64
62055;BME280;48653;51.742;-1.256;2023-07-31T11:09:07;99809.07;;;19.09;50.00
62055;BME280;48653;51.742;-1.256;2023-07-31T11:11:33;99806.59;;;18.86;50.12
62055;BME280;48653;51.742;-1.256;2023-07-31T11:13:58;99796.43;;;19.28;48.61
62055;BME280;48653;51.742;-1.256;2023-07-31T11:16:25;99795.35;;;19.15;49.58
62055;BME280;48653;51.742;-1.256;2023-07-31T11:18:49;99795.03;;;19.29;49.77
62055;BME280;48653;51.742;-1.256;2023-07-31T11:21:15;99800.53;;;19.10;49.72
62055;BME280;48653;51.742;-1.256;2023-07-31T11:23:39;99799.69;;;18.93;49.64
62055;BME280;48653;51.742;-1.256;2023-07-31T11:26:05;99806.08;;;18.07;49.98
62055;BME280;48653;51.742;-1.256;2023-07-31T11:28:32;99800.22;;;17.67;51.08
62055;BME280;48653;51.742;-1.256;2023-07-31T11:30:56;99801.98;;;17.95;50.24
62055;BME280;48653;51.742;-1.256;2023-07-31T11:33:19;99801.45;;;18.42;49.64
62055;BME280;48653;51.742;-1.256;2023-07-31T11:35:46;99801.59;;;18.78;49.31
62055;BME280;48653;51.742;-1.256;2023-07-31T11:38:09;99796.23;;;18.73;49.07
62055;BME280;48653;51.742;-1.256;2023-07-31T11:40:41;99799.78;;;18.36;50.13
62055;BME280;48653;51.742;-1.256;2023-07-31T11:43:04;99792.92;;;18.72;49.03
62055;BME280;48653;51.742;-1.256;2023-07-31T11:45:26;99787.96;;;18.98;48.41
62055;BME280;48653;51.742;-1.256;2023-07-31T11:47:51;99789.61;;;18.13;49.29
62055;BME280;48653;51.742;-1.256;2023-07-31T11:50:16;99792.53;;;18.25;48.59
62055;BME280;48653;51.742;-1.256;2023-07-31T11:52:44;99786.09;;;18.31;49.33
62055;BME280;48653;51.742;-1.256;2023-07-31T11:55:07;99779.52;;;18.79;48.54
62055;BME280;48653;51.742;-1.256;2023-07-31T11:57:31;99768.69;;;19.09;48.79
62055;BME280;48653;51.742;-1.256;2023-07-31T11:59:56;99761.23;;;19.17;48.17
62055;BME280;48653;51.742;-1.256;2023-07-31T12:02:22;99761.10;;;19.33;47.57
62055;BME280;48653;51.742;-1.256;2023-07-31T12:04:47;99765.52;;;19.65;47.33
62055;BME280;48653;51.742;-1.256;2023-07-31T12:07:12;99765.14;;;19.80;47.33
62055;BME280;48653;51.742;-1.256;2023-07-31T12:09:37;99769.33;;;19.65;46.98
62055;BME280;48653;51.742;-1.256;2023-07-31T12:12:08;99776.55;;;19.12;47.68
62055;BME280;48653;51.742;-1.256;2023-07-31T12:14:28;99771.43;;;19.17;46.99
62055;BME280;48653;51.742;-1.256;2023-07-31T12:16:54;99758.34;;;18.37;47.70
62055;BME280;48653;51.742;-1.256;2023-07-31T12:19:19;99761.70;;;18.00;48.70
62055;BME280;48653;51.742;-1.256;2023-07-31T12:21:44;99760.94;;;18.39;48.36
62055;BME280;48653;51.742;-1.256;2023-07-31T12:24:09;99751.43;;;18.95;47.63
62055;BME280;48653;51.742;-1.256;2023-07-31T12:26:34;99750.28;;;19.25;47.22
62055;BME280;48653;51.742;-1.256;2023-07-31T12:29:00;99749.83;;;18.73;46.96
62055;BME280;48653;51.742;-1.256;2023-07-31T12:31:28;99754.10;;;19.61;46.69
62055;BME280;48653;51.742;-1.256;2023-07-31T12:33:51;99754.74;;;18.87;47.09
62055;BME280;48653;51.742;-1.256;2023-07-31T12:36:17;99762.94;;;19.38;46.38
62055;BME280;48653;51.742;-1.256;2023-07-31T12:38:41;99766.60;;;19.02;47.42
62055;BME280;48653;51.742;-1.256;2023-07-31T12:41:07;99752.79;;;18.76;48.13
62055;BME280;48653;51.742;-1.256;2023-07-31T12:43:32;99737.81;;;19.41;47.21
62055;BME280;48653;51.742;-1.256;2023-07-31T12:45:57;99722.04;;;19.34;48.14
62055;BME280;48653;51.742;-1.256;2023-07-31T12:48:22;99698.99;;;19.28;47.47
62055;BME280;48653;51.742;-1.256;2023-07-31T12:50:47;99700.01;;;18.99;47.82